ASN logo
ASN Wikibase Occurrence # 204945
Last updated: 22 May 2018
This information is added by users of ASN. Neither ASN nor the Flight Safety Foundation are responsible for the completeness or correctness of this information. If you feel this information is incomplete or incorrect, you can submit corrected information.

Date:23-JAN-2018
Time:09:35 LT
Type:Silhouette image of generic AT72 model; specific model in this crash may look slightly different
ATR 72-500 (72-212A)
Owner/operator:NoRRA Nordic Regional Airlines
Registration: OH-ATO
C/n / msn: 977
Fatalities:Fatalities: 0 / Occupants: 64
Other fatalities:0
Airplane damage: None
Category:Serious incident
Location:Helsinki-Vantaa-Airport (HEL/EFHK) -   Finland
Phase: Take off
Nature:International Scheduled Passenger
Departure airport:Helsinki-Vantaa (HEL/EFHK), Finland
Destination airport:Riga Airport (RIX/EVRA), Latvia
Investigating agency: AIB Finland
Narrative:
NoRRA flight AY1071, an ATR 72-500 was involved in a serious runway incursion incident on takeoff from runway 22L at Helsinki-Vantaa-Airport, Finland.
During the takeoff roll, two tractors and snow blowers were present on the runway. The flight became airborne and proceeded to the destination, Riga Airport, Latvia.


Weather reported at the time of the incident:
EFHK 230750Z 25004KT 9999 BKN043 M13/M15 Q1020 NOSIG
EFHK 230720Z 23005KT 9999 BKN042 M14/M16 Q1019 NOSIG

Sources:

https://www.flightradar24.com/data/aircraft/oh-ato#1035068b
http://www.lentoposti.fi/uutiset/norran_atr_72_ja_kunnossapidon_ty_koneet_olivat_t_rm_t_helsinki_vantaalla_otkes_tutkii_tapausta
https://twitter.com/OTKES_SIAF
https://www.savonsanomat.fi/kotimaa/Vakava-vaaratilanne-Helsinki-Vantaalla/1098773
http://www.onnettomuustutkinta.fi/en/index/ajankohtaista/aloitetuttutkinnattiedotteet/l2018-02vakavatvaaratilanteethelsinki-vantaanlentoasemalla23.1.2018ja24.1.2018.html


Revision history:

Date/timeContributorUpdates
23-Jan-2018 18:09 dolly 564 Added
23-Jan-2018 18:11 harro Updated [Source]
23-Jan-2018 19:29 harro Updated [Time, Aircraft type, Operator, Location, Departure airport, Destination airport, Source, Narrative]
02-Feb-2018 18:29 harro Updated [Source]

Corrections or additions? ... Edit this accident description